NZAA Airport Information

Runway Information
Runway 05L Length 10197 ft width 148 ft
Elevation 15 ft Threshold 1148 ft Heading 71
Runway 23R Length 10197 ft Width 148 ft
Elevation 22 ft Threshold 1542 ft Heading 251
Runway 05R Length 11926 ft width 148 ft
Elevation 15 ft Threshold 1125 ft Heading 72
Runway 23L Length 11926 ft Width 148 ft
Elevation 23 ft Threshold 0 ft Heading 252
Airport Frequencies
Type APP Name APP Frequency 124.3 MHZ
Type ATIS Name ATIS Frequency 127.8 MHZ
Type CLD Name CLNC DEL Frequency 128.2 MHZ
Type GND Name GND Frequency 121.9 MHZ
Type TWR Name TWR Frequency 118.7 MHZ
Airport Navaids
Type VOR-DME Name Auckland Frequency 114800 KHZ
Type NDB Name Whitford Frequency 334 KHZ
Type NDB Name Westpoint Frequency 398 KHZ
Airport Weather Information & NOTAM
ADDS - METARS form results

(2053 UTC 22 February 2018)
 
METAR text: NZAA 222030Z AUTO 24003KT 9999 FEW060/// SCT090/// 20/17 Q1012 NOSIG
Conditions at: NZAA (AUCKLAND INTL AR, NZ) observed 2030 UTC 22 February 2018
Temperature: 20.0°C (68°F)
Dewpoint: 17.0°C (63°F) [RH = 83%]
Pressure (altimeter): 29.88 inches Hg (1012.0 mb)
Winds: from the WSW (240 degrees) at 3 MPH (3 knots; 1.6 m/s)
Visibility: 6 or more miles (10+ km)
Ceiling: at least 12,000 feet AGL
Clouds: few clouds at 6000 feet AGL
scattered clouds at 9000 feet AGL
Weather: no significant weather observed at this time

METAR text: NZAA 222000Z AUTO 30003KT 9999 FEW022/// BKN055/// 20/17 Q1011 NOSIG
Conditions at: NZAA (AUCKLAND INTL AR, NZ) observed 2000 UTC 22 February 2018
Temperature: 20.0°C (68°F)
Dewpoint: 17.0°C (63°F) [RH = 83%]
Pressure (altimeter): 29.85 inches Hg (1011.0 mb)
Winds: from the WNW (300 degrees) at 3 MPH (3 knots; 1.6 m/s)
Visibility: 6 or more miles (10+ km)
Ceiling: 5500 feet AGL
Clouds: few clouds at 2200 feet AGL
broken clouds at 5500 feet AGL
Weather: no significant weather observed at this time